Terminal Aerodrome Forecast
Issued by NWS Pocatello, ID

Home | Current Version | Previous Version | Text Only | Print | Product List | Glossary On
Versions: 1 2 3 4 5 6 7 8 9 10 11 12
000
FTUS45 KPIH 311700
TAFBYI
TAF
KBYI 311731Z 3118/0118 09008KT P6SM BKN200
     FM312000 18011KT P6SM BKN200
     FM010000 17008KT P6SM SCT100 BKN150
     FM011600 18010G18KT P6SM VCSH SCT070 BKN120=

USA.gov is the U.S. government's official web portal to all federal, state and local government web resources and services.